createdAt,value
2023-03-27T00:00:43.482Z,101059.53
2023-03-27T00:03:16.730Z,101059.06
2023-03-27T00:05:47.346Z,101056.38
2023-03-27T00:08:18.377Z,101061.66
2023-03-27T00:10:49.744Z,101059.63
2023-03-27T00:13:21.140Z,101057.72
2023-03-27T00:15:52.323Z,101060.06
2023-03-27T00:18:22.968Z,101061.34
2023-03-27T00:20:54.322Z,101052.47
2023-03-27T00:23:25.295Z,101059.69
2023-03-27T00:25:56.846Z,101060.22
2023-03-27T00:28:29.668Z,101060.72
2023-03-27T00:31:00.393Z,101056.41
2023-03-27T00:33:30.980Z,101060.44
2023-03-27T00:36:01.311Z,101058.59
2023-03-27T00:38:32.337Z,101059.66
2023-03-27T00:41:03.134Z,101063.25
2023-03-27T00:43:37.736Z,101065.56
2023-03-27T00:46:17.235Z,101062.72
2023-03-27T00:48:49.895Z,101064.41
2023-03-27T00:51:23.964Z,101055.94
2023-03-27T00:53:54.779Z,101061.19
2023-03-27T00:56:26.869Z,101058.06
2023-03-27T00:59:01.267Z,101058.31
2023-03-27T01:01:33.024Z,101063.75
2023-03-27T01:04:08.092Z,101052.75
2023-03-27T01:06:40.396Z,101055.69
2023-03-27T01:09:20.714Z,101054.25
2023-03-27T01:12:25.053Z,101051.38
2023-03-27T01:15:21.563Z,101045.09
2023-03-27T01:18:11.462Z,101041.34
2023-03-27T01:21:11.760Z,101032.63
2023-03-27T01:24:00.962Z,101033.66
2023-03-27T01:27:04.790Z,101030.38
2023-03-27T01:29:59.471Z,101036.47
2023-03-27T01:32:42.579Z,101030.66
2023-03-27T01:35:47.907Z,101030.25
2023-03-27T01:38:44.845Z,101027.97
2023-03-27T01:41:23.285Z,101026.75
2023-03-27T01:44:06.614Z,101026.75
2023-03-27T01:46:42.631Z,101023.84
2023-03-27T01:49:34.270Z,101021.34
2023-03-27T01:52:09.252Z,101027.03
2023-03-27T01:54:44.421Z,101013.06
2023-03-27T01:57:23.308Z,101012.88
2023-03-27T02:00:19.674Z,101006.19
2023-03-27T02:02:58.133Z,101003.28
2023-03-27T02:05:30.531Z,101008.69
2023-03-27T02:08:11.444Z,101005.97
2023-03-27T02:10:45.424Z,100996.56
2023-03-27T02:13:22.468Z,100996.19
2023-03-27T02:15:54.134Z,100999.09
2023-03-27T02:18:35.524Z,100998.06
2023-03-27T02:21:07.539Z,100999.09
2023-03-27T02:23:39.695Z,100994.09
2023-03-27T02:26:20.386Z,100996.56
2023-03-27T02:29:24.881Z,101001.19
2023-03-27T02:32:10.824Z,100993.69
2023-03-27T02:35:03.815Z,101000.78
2023-03-27T02:37:42.624Z,101000.78
2023-03-27T02:40:59.545Z,100994.94
2023-03-27T02:44:15.747Z,100985.72
2023-03-27T02:47:29.466Z,100984.66
2023-03-27T02:50:07.807Z,100981.53
2023-03-27T02:52:47.511Z,100978.19
2023-03-27T02:55:47.672Z,100964.38
2023-03-27T02:58:28.009Z,100961.28
2023-03-27T03:01:02.432Z,100966.28
2023-03-27T03:04:25.417Z,100969.81
2023-03-27T03:07:07.352Z,100957.25
2023-03-27T03:09:40.640Z,100948.91
2023-03-27T03:12:13.171Z,100937.16
2023-03-27T03:14:45.297Z,100936.97
2023-03-27T03:17:20.112Z,100929.63
2023-03-27T03:19:50.634Z,100929.44
2023-03-27T03:22:21.753Z,100924.81
2023-03-27T03:24:52.520Z,100925.63
2023-03-27T03:27:30.105Z,100915.75
2023-03-27T03:30:08.458Z,100912.81
2023-03-27T03:32:54.028Z,100899.81
2023-03-27T03:35:26.213Z,100904.97
2023-03-27T03:37:58.672Z,100894.28
2023-03-27T03:40:31.579Z,100891.34
2023-03-27T03:43:02.296Z,100891.34
2023-03-27T03:45:33.586Z,100885.00
2023-03-27T03:48:04.454Z,100880.78
2023-03-27T03:50:35.060Z,100873.25
2023-03-27T03:53:06.498Z,100876.69
2023-03-27T03:55:37.516Z,100884.22
2023-03-27T03:58:08.937Z,100872.03
2023-03-27T04:00:41.453Z,100871.41
2023-03-27T04:03:28.539Z,100858.31
2023-03-27T04:06:06.072Z,100851.47
2023-03-27T04:08:36.826Z,100853.59
2023-03-27T04:11:07.993Z,100856.75
2023-03-27T04:13:51.925Z,100848.41
2023-03-27T04:16:37.612Z,100847.19
2023-03-27T04:19:19.796Z,100832.84
2023-03-27T04:21:57.233Z,100826.13
2023-03-27T04:24:32.388Z,100806.88
2023-03-27T04:27:03.264Z,100799.03
2023-03-27T04:29:56.423Z,100791.63
2023-03-27T04:32:54.990Z,100783.28
2023-03-27T04:36:05.381Z,100772.53
2023-03-27T04:38:56.405Z,100765.81
2023-03-27T04:41:30.835Z,100754.03
2023-03-27T04:44:02.173Z,100759.41
2023-03-27T04:46:42.441Z,100753.19
2023-03-27T04:49:15.573Z,100741.09
2023-03-27T04:52:00.841Z,100732.84
2023-03-27T04:54:33.272Z,100727.16
2023-03-27T04:57:04.631Z,100738.00
2023-03-27T04:59:35.577Z,100738.81
2023-03-27T05:02:27.377Z,100733.34
2023-03-27T05:05:05.709Z,100736.91
2023-03-27T05:07:40.401Z,100725.88
2023-03-27T05:10:12.211Z,100729.81
2023-03-27T05:12:50.229Z,100721.97
2023-03-27T05:15:22.720Z,100715.66
2023-03-27T05:17:56.866Z,100719.47
2023-03-27T05:20:29.827Z,100715.94
2023-03-27T05:23:02.165Z,100706.75
2023-03-27T05:25:37.033Z,100708.16
2023-03-27T05:28:12.690Z,100697.31
2023-03-27T05:30:45.100Z,100691.09
2023-03-27T05:33:21.524Z,100689.91
2023-03-27T05:35:53.296Z,100681.25
2023-03-27T05:38:27.270Z,100690.97
2023-03-27T05:41:19.104Z,100676.41
2023-03-27T05:43:52.593Z,100666.94
2023-03-27T05:46:24.592Z,100672.03
2023-03-27T05:49:02.369Z,100667.31
2023-03-27T05:51:34.449Z,100666.47
2023-03-27T05:54:05.471Z,100670.03
2023-03-27T05:56:57.593Z,100650.34
2023-03-27T05:59:28.647Z,100655.78
2023-03-27T06:02:14.722Z,100665.78
2023-03-27T06:04:50.517Z,100661.00
2023-03-27T06:07:53.783Z,100663.63
2023-03-27T06:10:25.078Z,100655.91
2023-03-27T06:13:15.612Z,100660.59
2023-03-27T06:15:57.321Z,100660.34
2023-03-27T06:18:41.676Z,100653.47
2023-03-27T06:21:14.479Z,100648.31
2023-03-27T06:23:46.911Z,100645.47
2023-03-27T06:26:20.383Z,100647.84
2023-03-27T06:28:51.671Z,100651.09
2023-03-27T06:31:23.037Z,100645.78
2023-03-27T06:34:20.079Z,100634.22
2023-03-27T06:37:00.680Z,100632.31
2023-03-27T06:39:32.388Z,100630.19
2023-03-27T06:42:03.075Z,100618.81
2023-03-27T06:44:49.911Z,100620.13
2023-03-27T06:47:51.592Z,100622.47
2023-03-27T06:50:52.181Z,100621.44
2023-03-27T06:53:27.851Z,100613.13
2023-03-27T06:55:59.861Z,100626.75
2023-03-27T06:58:41.832Z,100624.03
2023-03-27T07:01:13.669Z,100629.56
2023-03-27T07:04:02.114Z,100622.31
2023-03-27T07:06:39.620Z,100621.59
2023-03-27T07:09:14.356Z,100616.63
2023-03-27T07:11:53.054Z,100615.91
2023-03-27T07:14:25.186Z,100620.88
2023-03-27T07:16:55.934Z,100626.19
2023-03-27T07:19:29.315Z,100608.78
2023-03-27T07:22:08.219Z,100610.91
2023-03-27T07:24:41.703Z,100603.47
2023-03-27T07:27:13.632Z,100616.84
2023-03-27T07:29:45.375Z,100613.97
2023-03-27T07:32:36.145Z,100611.84
2023-03-27T07:35:09.516Z,100608.44
2023-03-27T07:38:12.447Z,100605.13
2023-03-27T07:41:07.736Z,100621.09
2023-03-27T07:44:07.935Z,100617.53
2023-03-27T07:46:55.892Z,100617.41
2023-03-27T07:49:40.092Z,100618.31
2023-03-27T07:52:16.663Z,100618.44
2023-03-27T07:54:54.115Z,100622.69
2023-03-27T07:57:26.895Z,100630.25
2023-03-27T08:00:12.466Z,100625.84
2023-03-27T08:03:09.476Z,100637.34
2023-03-27T08:05:51.540Z,100644.50
2023-03-27T08:08:25.430Z,100644.41
2023-03-27T08:11:01.915Z,100639.19
2023-03-27T08:13:42.039Z,100647.84
2023-03-27T08:16:21.031Z,100643.84
2023-03-27T08:18:51.163Z,100646.13
2023-03-27T08:21:22.603Z,100654.03
2023-03-27T08:24:41.990Z,100643.38
2023-03-27T08:27:21.429Z,100650.97
2023-03-27T08:29:58.633Z,100654.13
2023-03-27T08:32:30.003Z,100653.28
2023-03-27T08:35:01.664Z,100658.13
2023-03-27T08:37:32.407Z,100658.38
2023-03-27T08:40:31.816Z,100662.16
2023-03-27T08:43:28.359Z,100664.28
2023-03-27T08:46:08.970Z,100665.94
2023-03-27T08:48:55.563Z,100675.19
2023-03-27T08:51:33.269Z,100680.47
2023-03-27T08:54:16.300Z,100676.91
2023-03-27T08:56:49.122Z,100686.84
2023-03-27T08:59:31.449Z,100684.09
2023-03-27T09:02:11.057Z,100684.94
2023-03-27T09:05:02.555Z,100693.78
2023-03-27T09:07:35.599Z,100693.78
2023-03-27T09:10:40.668Z,100693.03
2023-03-27T09:13:39.174Z,100702.25
2023-03-27T09:16:20.650Z,100702.69
2023-03-27T09:19:18.406Z,100707.06
2023-03-27T09:21:51.303Z,100709.84
2023-03-27T09:24:45.596Z,100703.59
2023-03-27T09:27:48.576Z,100710.53
2023-03-27T09:30:33.412Z,100711.16
2023-03-27T09:33:12.343Z,100715.38
2023-03-27T09:35:45.200Z,100717.03
2023-03-27T09:38:51.725Z,100724.84
2023-03-27T09:41:29.124Z,100741.81
2023-03-27T09:44:07.691Z,100738.03
2023-03-27T09:46:46.350Z,100738.31
2023-03-27T09:49:20.173Z,100740.44
2023-03-27T09:51:54.905Z,100742.53
2023-03-27T09:54:57.710Z,100740.28
2023-03-27T09:57:38.299Z,100755.81
2023-03-27T10:00:31.895Z,100764.59
2023-03-27T10:03:04.985Z,100763.78
2023-03-27T10:05:39.406Z,100775.72
2023-03-27T10:08:34.587Z,100776.31
2023-03-27T10:11:18.870Z,100790.19
2023-03-27T10:13:56.711Z,100794.03
2023-03-27T10:16:30.244Z,100805.34
2023-03-27T10:19:25.404Z,100821.19
2023-03-27T10:21:58.130Z,100827.16
2023-03-27T10:24:44.342Z,100834.13
2023-03-27T10:27:41.499Z,100840.84
2023-03-27T10:31:05.489Z,100850.72
2023-03-27T10:33:47.382Z,100852.44
2023-03-27T10:36:38.711Z,100864.59
2023-03-27T10:39:16.315Z,100862.50
2023-03-27T10:42:10.302Z,100866.31
2023-03-27T10:44:49.229Z,100877.97
2023-03-27T10:47:22.608Z,100886.31
2023-03-27T10:50:08.793Z,100884.66
2023-03-27T10:52:51.355Z,100876.72
2023-03-27T10:55:49.395Z,100893.63
2023-03-27T10:58:40.918Z,100893.03
2023-03-27T11:01:27.810Z,100904.28
2023-03-27T11:04:14.261Z,100903.25
2023-03-27T11:06:53.609Z,100907.22
2023-03-27T11:09:38.018Z,100911.84
2023-03-27T11:12:20.900Z,100925.63
2023-03-27T11:15:12.703Z,100928.75
2023-03-27T11:17:58.108Z,100925.81
2023-03-27T11:20:53.526Z,100930.22
2023-03-27T11:23:41.267Z,100936.03
2023-03-27T11:26:25.501Z,100938.56
2023-03-27T11:29:24.450Z,100936.91
2023-03-27T11:32:04.700Z,100939.81
2023-03-27T11:34:58.664Z,100938.34
2023-03-27T11:38:05.870Z,100943.56
2023-03-27T11:40:52.547Z,100949.41
2023-03-27T11:43:24.102Z,100949.38
2023-03-27T11:46:31.611Z,100952.69
2023-03-27T11:49:19.939Z,100963.56
2023-03-27T11:52:11.294Z,100965.63
2023-03-27T11:55:14.274Z,100973.16
2023-03-27T11:57:54.656Z,100978.97
2023-03-27T12:00:47.376Z,100988.16
2023-03-27T12:03:33.413Z,100980.25
2023-03-27T12:06:17.961Z,100978.97
2023-03-27T12:09:07.463Z,100981.06
2023-03-27T12:12:08.741Z,100983.56
2023-03-27T12:14:53.500Z,100985.44
2023-03-27T12:17:47.147Z,100988.16
2023-03-27T12:20:58.950Z,100994.84
2023-03-27T12:24:18.230Z,100994.84
2023-03-27T12:27:21.590Z,100993.19
2023-03-27T12:30:39.564Z,100994.41
2023-03-27T12:33:34.557Z,101004.03
2023-03-27T12:36:08.204Z,101004.00
2023-03-27T12:38:42.317Z,101012.34
2023-03-27T12:41:25.674Z,101016.50
2023-03-27T12:44:16.411Z,101019.84
2023-03-27T12:47:27.430Z,101016.88
2023-03-27T12:50:28.415Z,101015.66
2023-03-27T12:53:00.798Z,101019.41
2023-03-27T12:55:38.859Z,101015.59
2023-03-27T12:58:39.165Z,101023.97
2023-03-27T13:01:11.919Z,101019.53
2023-03-27T13:03:49.773Z,101018.75
2023-03-27T13:06:56.943Z,101014.78
2023-03-27T13:09:57.906Z,101018.91
2023-03-27T13:13:13.031Z,101026.00
2023-03-27T13:16:17.865Z,101029.31
2023-03-27T13:19:04.222Z,101035.97
2023-03-27T13:22:15.983Z,101032.66
2023-03-27T13:25:25.354Z,101026.41
2023-03-27T13:28:23.114Z,101033.44
2023-03-27T13:31:10.397Z,101044.22
2023-03-27T13:34:26.486Z,101037.19
2023-03-27T13:37:10.056Z,101042.38
2023-03-27T13:40:03.046Z,101040.06
2023-03-27T13:42:40.674Z,101041.91
2023-03-27T13:45:18.928Z,101039.19
2023-03-27T13:48:27.403Z,101045.88
2023-03-27T13:51:24.551Z,101045.66
2023-03-27T13:54:32.159Z,101042.94
2023-03-27T13:57:07.890Z,101045.22
2023-03-27T14:00:05.362Z,101045.63
2023-03-27T14:03:05.289Z,101045.78
2023-03-27T14:06:07.335Z,101045.56
2023-03-27T14:09:07.040Z,101038.84
2023-03-27T14:12:32.366Z,101043.63
2023-03-27T14:15:45.235Z,101045.81
2023-03-27T14:18:45.264Z,101038.31
2023-03-27T14:21:31.269Z,101041.25
2023-03-27T14:24:35.618Z,101037.94
2023-03-27T14:27:19.714Z,101037.13
2023-03-27T14:30:22.566Z,101038.34
2023-03-27T14:33:08.928Z,101044.78
2023-03-27T14:35:47.763Z,101038.94
2023-03-27T14:38:25.784Z,101031.22
2023-03-27T14:41:07.457Z,101040.00
2023-03-27T14:43:49.800Z,101033.13
2023-03-27T14:46:24.418Z,101034.16
2023-03-27T14:49:02.345Z,101033.28
2023-03-27T14:51:42.922Z,101040.84
2023-03-27T14:54:28.285Z,101037.03
2023-03-27T14:57:09.989Z,101034.97
2023-03-27T14:59:48.286Z,101039.50
2023-03-27T15:02:36.078Z,101032.22
2023-03-27T15:05:13.642Z,101033.69
2023-03-27T15:07:49.907Z,101035.81
2023-03-27T15:10:34.009Z,101037.03
2023-03-27T15:13:12.431Z,101037.03
2023-03-27T15:15:51.381Z,101038.06
2023-03-27T15:18:25.630Z,101033.91
2023-03-27T15:20:57.640Z,101035.75
2023-03-27T15:24:14.986Z,101040.78
2023-03-27T15:26:45.920Z,101031.50
2023-03-27T15:29:50.890Z,101035.50
2023-03-27T15:32:23.044Z,101044.88
2023-03-27T15:34:59.124Z,101032.34
2023-03-27T15:37:31.393Z,101033.19
2023-03-27T15:40:10.035Z,101030.28
2023-03-27T15:42:52.966Z,101035.25
2023-03-27T15:45:26.678Z,101026.47
2023-03-27T15:48:24.948Z,101026.47
2023-03-27T15:51:07.056Z,101032.69
2023-03-27T15:53:48.816Z,101029.16
2023-03-27T15:56:26.506Z,101034.13
2023-03-27T15:59:01.607Z,101027.28
2023-03-27T16:01:42.413Z,101030.78
2023-03-27T16:04:18.922Z,101030.78
2023-03-27T16:06:55.648Z,101033.44
2023-03-27T16:09:32.541Z,101031.78
2023-03-27T16:12:03.342Z,101032.16
2023-03-27T16:14:36.542Z,101031.56
2023-03-27T16:17:17.927Z,101021.38
2023-03-27T16:19:57.363Z,101023.81
2023-03-27T16:22:28.881Z,101021.75
2023-03-27T16:25:03.930Z,101017.91
2023-03-27T16:27:45.398Z,101014.81
2023-03-27T16:30:46.719Z,101010.13
2023-03-27T16:33:19.339Z,101007.72
2023-03-27T16:35:51.367Z,101002.97
2023-03-27T16:38:22.841Z,100997.28
2023-03-27T16:40:53.578Z,101005.25
2023-03-27T16:43:24.258Z,100991.25
2023-03-27T16:45:59.214Z,100989.56
2023-03-27T16:48:29.971Z,100978.94
2023-03-27T16:51:00.685Z,100987.91
2023-03-27T16:53:31.636Z,100980.81
2023-03-27T16:56:01.943Z,100972.06
2023-03-27T16:58:32.633Z,100971.41
2023-03-27T17:01:03.209Z,100966.56
2023-03-27T17:03:35.131Z,100964.97
2023-03-27T17:06:11.136Z,100970.13
2023-03-27T17:08:41.758Z,100964.06
2023-03-27T17:11:14.455Z,100969.50
2023-03-27T17:13:44.714Z,100962.41
2023-03-27T17:16:16.412Z,100956.34
2023-03-27T17:18:47.556Z,100958.03
2023-03-27T17:21:18.218Z,100954.03
2023-03-27T17:23:49.685Z,100946.56
2023-03-27T17:26:39.377Z,100941.97
2023-03-27T17:29:11.205Z,100946.94
2023-03-27T17:31:42.479Z,100944.63
2023-03-27T17:34:13.518Z,100942.31
2023-03-27T17:36:52.379Z,100949.41
2023-03-27T17:39:28.996Z,100942.31
2023-03-27T17:41:59.733Z,100948.56
2023-03-27T17:44:33.469Z,100938.13
2023-03-27T17:47:04.836Z,100933.97
2023-03-27T17:49:36.159Z,100933.09
2023-03-27T17:52:11.985Z,100932.66
2023-03-27T17:54:43.130Z,100926.41
2023-03-27T17:57:24.000Z,100926.41
2023-03-27T17:59:55.719Z,100927.66
2023-03-27T18:02:29.199Z,100924.09
2023-03-27T18:05:01.311Z,100923.47
2023-03-27T18:07:34.980Z,100918.44
2023-03-27T18:10:06.448Z,100924.69
2023-03-27T18:12:38.547Z,100914.28
2023-03-27T18:15:10.266Z,100929.84
2023-03-27T18:17:41.570Z,100918.00
2023-03-27T18:20:14.932Z,100928.34
2023-03-27T18:22:46.138Z,100926.91
2023-03-27T18:25:19.024Z,100926.91
2023-03-27T18:27:50.339Z,100922.88
2023-03-27T18:30:21.999Z,100923.69
2023-03-27T18:32:52.705Z,100919.53
2023-03-27T18:35:24.161Z,100921.59
2023-03-27T18:37:54.745Z,100927.00
2023-03-27T18:40:25.889Z,100914.50
2023-03-27T18:42:57.072Z,100921.75
2023-03-27T18:45:28.148Z,100931.13
2023-03-27T18:47:58.778Z,100921.72
2023-03-27T18:50:29.801Z,100920.47
2023-03-27T18:53:00.752Z,100914.25
2023-03-27T18:55:33.320Z,100911.09
2023-03-27T18:58:04.176Z,100916.06
2023-03-27T19:00:34.819Z,100915.66
2023-03-27T19:03:06.274Z,100918.56
2023-03-27T19:05:37.316Z,100922.31
2023-03-27T19:08:08.906Z,100919.78
2023-03-27T19:10:40.545Z,100911.03
2023-03-27T19:13:26.905Z,100917.84
2023-03-27T19:16:33.129Z,100918.50
2023-03-27T19:19:31.700Z,100916.81
2023-03-27T19:22:09.364Z,100909.94
2023-03-27T19:24:45.318Z,100916.56
2023-03-27T19:27:23.931Z,100905.09
2023-03-27T19:29:56.530Z,100910.72
2023-03-27T19:32:27.620Z,100904.47
2023-03-27T19:35:01.715Z,100905.50
2023-03-27T19:37:33.566Z,100902.53
2023-03-27T19:40:08.391Z,100898.63
2023-03-27T19:42:39.369Z,100894.63
2023-03-27T19:45:10.811Z,100899.81
2023-03-27T19:47:41.576Z,100895.66
2023-03-27T19:50:12.619Z,100897.50
2023-03-27T19:53:05.196Z,100906.63
2023-03-27T19:55:39.711Z,100904.53
2023-03-27T19:58:10.687Z,100894.38
2023-03-27T20:00:41.346Z,100900.97
2023-03-27T20:03:20.575Z,100907.22
2023-03-27T20:05:53.831Z,100906.38
2023-03-27T20:08:25.082Z,100914.03
2023-03-27T20:10:56.342Z,100916.53
2023-03-27T20:13:27.662Z,100921.25
2023-03-27T20:15:59.072Z,100925.66
2023-03-27T20:18:33.699Z,100925.00
2023-03-27T20:21:06.056Z,100933.94
2023-03-27T20:23:38.625Z,100929.75
2023-03-27T20:26:10.238Z,100936.84
2023-03-27T20:28:44.678Z,100936.56
2023-03-27T20:31:15.717Z,100946.53
2023-03-27T20:33:48.392Z,100933.84
2023-03-27T20:36:20.768Z,100940.28
2023-03-27T20:38:53.600Z,100935.91
2023-03-27T20:41:28.111Z,100941.69
2023-03-27T20:43:59.940Z,100943.38
2023-03-27T20:46:31.404Z,100946.28
2023-03-27T20:49:04.407Z,100948.13
2023-03-27T20:51:35.620Z,100961.34
2023-03-27T20:54:11.045Z,100964.06
2023-03-27T20:56:42.315Z,100965.75
2023-03-27T20:59:14.460Z,100967.78
2023-03-27T21:01:45.328Z,100973.56
2023-03-27T21:04:16.299Z,100969.03
2023-03-27T21:06:46.611Z,100972.75
2023-03-27T21:09:17.283Z,100977.69
2023-03-27T21:11:47.724Z,100984.13
2023-03-27T21:14:18.653Z,100983.47
2023-03-27T21:16:50.471Z,100992.59
2023-03-27T21:19:23.672Z,100990.94
2023-03-27T21:21:54.085Z,100990.28
2023-03-27T21:24:24.740Z,100988.59
2023-03-27T21:26:59.514Z,100992.97
2023-03-27T21:29:30.037Z,100995.03
2023-03-27T21:32:00.974Z,100997.72
2023-03-27T21:34:31.640Z,101006.19
2023-03-27T21:37:03.570Z,101007.88
2023-03-27T21:39:34.254Z,101004.88
2023-03-27T21:42:04.930Z,101010.28
2023-03-27T21:44:35.359Z,101016.72
2023-03-27T21:47:06.201Z,101017.75
2023-03-27T21:49:37.672Z,101018.94
2023-03-27T21:52:08.722Z,101024.34
2023-03-27T21:54:40.077Z,101025.19
2023-03-27T21:57:14.494Z,101018.28
2023-03-27T21:59:45.429Z,101030.97
2023-03-27T22:02:16.812Z,101025.94
2023-03-27T22:04:47.698Z,101023.03
2023-03-27T22:07:19.117Z,101023.34
2023-03-27T22:09:49.776Z,101029.63
2023-03-27T22:12:21.443Z,101035.19
2023-03-27T22:14:52.624Z,101034.72
2023-03-27T22:17:23.702Z,101042.81
2023-03-27T22:19:55.566Z,101041.97
2023-03-27T22:22:29.685Z,101038.81
2023-03-27T22:25:00.476Z,101045.03
2023-03-27T22:27:31.998Z,101052.31
2023-03-27T22:30:03.150Z,101050.28
2023-03-27T22:32:34.477Z,101055.00
2023-03-27T22:35:05.717Z,101061.44
2023-03-27T22:37:40.908Z,101070.56
2023-03-27T22:40:12.004Z,101073.25
2023-03-27T22:42:42.517Z,101073.25
2023-03-27T22:45:13.653Z,101080.34
2023-03-27T22:47:47.998Z,101084.72
2023-03-27T22:50:19.507Z,101083.69
2023-03-27T22:52:52.197Z,101089.25
2023-03-27T22:55:23.125Z,101094.28
2023-03-27T22:57:54.361Z,101096.16
2023-03-27T23:00:25.525Z,101098.00
2023-03-27T23:02:56.562Z,101099.88
2023-03-27T23:05:27.565Z,101100.19
2023-03-27T23:07:58.217Z,101103.53
2023-03-27T23:10:29.221Z,101108.94
2023-03-27T23:12:59.780Z,101104.56
2023-03-27T23:15:31.432Z,101111.97
2023-03-27T23:18:02.693Z,101106.56
2023-03-27T23:20:36.641Z,101117.81
2023-03-27T23:23:07.632Z,101108.25
2023-03-27T23:25:40.049Z,101111.22
2023-03-27T23:28:12.645Z,101114.59
2023-03-27T23:30:45.615Z,101111.59
2023-03-27T23:33:16.751Z,101120.34
2023-03-27T23:35:48.035Z,101123.16
2023-03-27T23:38:19.171Z,101121.00
2023-03-27T23:40:56.863Z,101128.38
2023-03-27T23:43:29.661Z,101127.66
2023-03-27T23:46:01.872Z,101137.44
2023-03-27T23:48:33.773Z,101125.69
2023-03-27T23:51:04.882Z,101136.59
2023-03-27T23:53:36.191Z,101141.97
2023-03-27T23:56:07.543Z,101141.25
2023-03-27T23:58:38.290Z,101139.47
